TAF and METAR

METAR for Fornebu Airport

ENFB 010820Z AUTO 24030KT 9999NDV OVC013/// 08/07 Q1029 W///S5
Report created 1. mar 09:20
report generated by an automatic observation system. wind 30 knots from WSW (240°) visibility > 10km overcast at 1300 feet Temperature 8° with dewpoint at 7° (Humidity 93.40%) Pressure 1029 hPa
No TAF available for Fornebu Airport